createdAt,value
2023-04-25T00:00:54.346Z,98583.06
2023-04-25T00:03:22.171Z,98574.47
2023-04-25T00:05:50.045Z,98573.75
2023-04-25T00:08:16.888Z,98571.25
2023-04-25T00:10:43.752Z,98574.88
2023-04-25T00:13:12.396Z,98571.88
2023-04-25T00:15:39.770Z,98575.69
2023-04-25T00:18:07.856Z,98572.16
2023-04-25T00:20:34.719Z,98572.13
2023-04-25T00:23:01.352Z,98571.41
2023-04-25T00:25:28.097Z,98571.56
2023-04-25T00:27:54.684Z,98561.94
2023-04-25T00:30:21.365Z,98562.88
2023-04-25T00:32:48.067Z,98569.00
2023-04-25T00:35:16.329Z,98571.03
2023-04-25T00:37:42.993Z,98563.59
2023-04-25T00:40:10.452Z,98560.16
2023-04-25T00:42:38.064Z,98554.31
2023-04-25T00:45:06.370Z,98548.06
2023-04-25T00:47:34.052Z,98547.72
2023-04-25T00:50:00.773Z,98540.41
2023-04-25T00:52:28.859Z,98542.44
2023-04-25T00:54:55.789Z,98534.56
2023-04-25T00:57:22.486Z,98536.38
2023-04-25T00:59:50.253Z,98524.75
2023-04-25T01:02:17.744Z,98533.44
2023-04-25T01:04:44.501Z,98535.41
2023-04-25T01:16:25.975Z,98517.88
2023-04-25T01:18:52.847Z,98522.41
2023-04-25T01:24:16.881Z,98509.91
2023-04-25T01:26:50.756Z,98506.06
2023-04-25T01:29:22.097Z,98511.63
2023-04-25T01:31:49.220Z,98506.66
2023-04-25T01:34:16.081Z,98520.19
2023-04-25T01:36:42.796Z,98514.06
2023-04-25T01:39:10.262Z,98512.94
2023-04-25T01:41:38.291Z,98515.91
2023-04-25T01:44:05.103Z,98512.94
2023-04-25T01:46:32.021Z,98504.63
2023-04-25T01:48:58.774Z,98507.88
2023-04-25T01:51:26.190Z,98506.06
2023-04-25T01:53:53.428Z,98506.28
2023-04-25T01:56:21.322Z,98496.59
2023-04-25T01:58:49.542Z,98486.91
2023-04-25T02:01:34.596Z,98492.72
2023-04-25T02:04:15.625Z,98496.81
2023-04-25T02:06:42.595Z,98508.25
2023-04-25T02:09:09.417Z,98501.38
2023-04-25T02:11:40.979Z,98495.63
2023-04-25T02:14:25.178Z,98506.06
2023-04-25T02:17:15.102Z,98514.66
2023-04-25T02:19:41.891Z,98505.38
2023-04-25T02:22:08.504Z,98509.94
2023-04-25T02:24:35.862Z,98510.22
2023-04-25T02:27:02.612Z,98512.47
2023-04-25T02:29:30.907Z,98508.44
2023-04-25T02:31:57.749Z,98512.16
2023-04-25T02:34:25.958Z,98521.50
2023-04-25T02:36:52.679Z,98519.91
2023-04-25T02:39:19.699Z,98519.38
2023-04-25T02:41:46.418Z,98511.50
2023-04-25T02:44:13.124Z,98506.63
2023-04-25T02:46:41.126Z,98496.63
2023-04-25T02:49:07.950Z,98494.00
2023-04-25T02:51:35.479Z,98497.28
2023-04-25T02:54:02.203Z,98503.66
2023-04-25T02:56:29.422Z,98506.06
2023-04-25T02:58:56.168Z,98515.19
2023-04-25T03:01:23.058Z,98518.66
2023-04-25T03:03:51.461Z,98503.75
2023-04-25T03:06:18.331Z,98506.38
2023-04-25T03:08:45.087Z,98511.09
2023-04-25T03:11:11.837Z,98518.38
2023-04-25T03:13:38.564Z,98518.09
2023-04-25T03:16:06.484Z,98512.19
2023-04-25T03:18:33.159Z,98506.50
2023-04-25T03:21:01.272Z,98500.94
2023-04-25T03:23:28.026Z,98502.13
2023-04-25T03:25:55.343Z,98506.91
2023-04-25T03:28:22.054Z,98505.28
2023-04-25T03:30:48.869Z,98498.06
2023-04-25T03:33:15.610Z,98505.41
2023-04-25T03:35:43.651Z,98501.53
2023-04-25T03:38:12.169Z,98496.53
2023-04-25T03:40:40.602Z,98484.97
2023-04-25T03:43:27.569Z,98481.09
2023-04-25T03:46:00.047Z,98479.00
2023-04-25T03:48:27.050Z,98474.03
2023-04-25T03:50:54.506Z,98459.94
2023-04-25T03:53:22.627Z,98453.31
2023-04-25T03:56:07.830Z,98455.25
2023-04-25T03:58:36.895Z,98463.38
2023-04-25T04:01:08.298Z,98474.59
2023-04-25T04:03:37.837Z,98481.72
2023-04-25T04:06:05.424Z,98489.91
2023-04-25T04:08:35.652Z,98482.88
2023-04-25T04:11:03.563Z,98478.19
2023-04-25T04:13:30.825Z,98483.03
2023-04-25T04:15:58.523Z,98488.84
2023-04-25T04:18:25.397Z,98495.69
2023-04-25T04:20:53.090Z,98500.66
2023-04-25T04:23:20.631Z,98506.91
2023-04-25T04:25:49.223Z,98506.34
2023-04-25T04:28:34.154Z,98510.91
2023-04-25T04:31:39.379Z,98507.72
2023-04-25T04:34:07.130Z,98502.81
2023-04-25T04:36:35.411Z,98503.22
2023-04-25T04:39:03.108Z,98507.22
2023-04-25T04:41:40.870Z,98501.97
2023-04-25T04:44:31.724Z,98506.38
2023-04-25T04:47:24.797Z,98515.47
2023-04-25T04:50:14.183Z,98523.63
2023-04-25T04:53:14.441Z,98529.47
2023-04-25T04:55:42.267Z,98526.13
2023-04-25T04:58:24.189Z,98525.38
2023-04-25T05:01:23.373Z,98534.63
2023-04-25T05:04:19.244Z,98527.19
2023-04-25T05:06:57.777Z,98525.28
2023-04-25T05:09:26.732Z,98540.28
2023-04-25T05:12:12.272Z,98539.69
2023-04-25T05:14:59.475Z,98543.41
2023-04-25T05:17:52.229Z,98548.38
2023-04-25T05:20:28.341Z,98557.59
2023-04-25T05:23:01.168Z,98558.56
2023-04-25T05:25:54.166Z,98556.88
2023-04-25T05:28:31.565Z,98559.19
2023-04-25T05:31:19.949Z,98572.78
2023-04-25T05:33:52.530Z,98571.13
2023-04-25T05:36:20.805Z,98569.84
2023-04-25T05:38:47.806Z,98578.66
2023-04-25T05:41:14.492Z,98581.00
2023-04-25T05:44:04.242Z,98578.47
2023-04-25T05:46:32.326Z,98578.63
2023-04-25T05:49:19.495Z,98588.38
2023-04-25T05:51:58.287Z,98594.19
2023-04-25T05:54:43.607Z,98589.47
2023-04-25T05:57:19.109Z,98593.00
2023-04-25T05:59:45.923Z,98589.09
2023-04-25T06:02:15.461Z,98594.34
2023-04-25T06:04:43.046Z,98597.94
2023-04-25T06:07:09.796Z,98597.16
2023-04-25T06:09:37.035Z,98598.25
2023-04-25T06:12:04.153Z,98598.41
2023-04-25T06:14:31.533Z,98599.88
2023-04-25T06:16:58.501Z,98610.44
2023-04-25T06:19:28.305Z,98605.47
2023-04-25T06:21:55.053Z,98605.34
2023-04-25T06:24:21.899Z,98610.84
2023-04-25T06:26:48.662Z,98621.88
2023-04-25T06:29:15.902Z,98615.28
2023-04-25T06:31:42.832Z,98623.16
2023-04-25T06:34:10.310Z,98622.50
2023-04-25T06:36:42.527Z,98630.63
2023-04-25T06:39:12.331Z,98629.25
2023-04-25T06:41:39.023Z,98626.38
2023-04-25T06:44:08.044Z,98632.28
2023-04-25T06:46:49.721Z,98638.22
2023-04-25T06:49:16.524Z,98636.56
2023-04-25T06:51:44.904Z,98637.69
2023-04-25T06:54:11.583Z,98640.56
2023-04-25T06:56:45.764Z,98641.53
2023-04-25T06:59:14.409Z,98640.28
2023-04-25T07:01:42.698Z,98637.59
2023-04-25T07:04:15.192Z,98643.72
2023-04-25T07:06:50.364Z,98649.69
2023-04-25T07:09:21.348Z,98651.50
2023-04-25T07:11:49.734Z,98651.19
2023-04-25T07:14:16.442Z,98652.81
2023-04-25T07:16:43.277Z,98656.22
2023-04-25T07:19:11.001Z,98659.06
2023-04-25T07:21:38.134Z,98653.38
2023-04-25T07:24:07.765Z,98653.47
2023-04-25T07:26:39.208Z,98651.16
2023-04-25T07:29:24.755Z,98662.06
2023-04-25T07:31:51.666Z,98663.81
2023-04-25T07:34:20.378Z,98664.06
2023-04-25T07:36:47.116Z,98661.59
2023-04-25T07:39:15.667Z,98669.38
2023-04-25T07:41:42.620Z,98675.22
2023-04-25T07:44:13.969Z,98680.00
2023-04-25T07:46:41.049Z,98683.19
2023-04-25T07:49:08.304Z,98685.03
2023-04-25T07:51:35.599Z,98688.28
2023-04-25T07:54:07.460Z,98683.28
2023-04-25T07:56:49.594Z,98689.47
2023-04-25T07:59:19.455Z,98693.63
2023-04-25T08:01:46.477Z,98691.81
2023-04-25T08:04:13.561Z,98697.75
2023-04-25T08:06:49.958Z,98701.94
2023-04-25T08:09:22.877Z,98696.56
2023-04-25T08:11:51.047Z,98699.19
2023-04-25T08:14:22.047Z,98709.13
2023-04-25T08:16:49.316Z,98711.00
2023-04-25T08:19:16.548Z,98708.16
2023-04-25T08:21:43.557Z,98704.72
2023-04-25T08:24:15.304Z,98702.16
2023-04-25T08:26:42.287Z,98706.25
2023-04-25T08:29:12.920Z,98703.31
2023-04-25T08:31:41.734Z,98708.66
2023-04-25T08:34:09.120Z,98703.53
2023-04-25T08:36:48.414Z,98708.00
2023-04-25T08:39:23.049Z,98708.31
2023-04-25T08:42:19.257Z,98718.41
2023-04-25T08:44:48.416Z,98721.69
2023-04-25T08:47:15.118Z,98721.06
2023-04-25T08:49:47.699Z,98734.06
2023-04-25T08:52:15.211Z,98737.75
2023-04-25T08:54:45.373Z,98736.53
2023-04-25T08:57:13.298Z,98740.34
2023-04-25T08:59:44.074Z,98737.59
2023-04-25T09:02:15.706Z,98744.06
2023-04-25T09:04:43.802Z,98741.25
2023-04-25T09:07:10.890Z,98749.47
2023-04-25T09:09:38.719Z,98751.94
2023-04-25T09:12:06.193Z,98747.34
2023-04-25T09:14:33.191Z,98752.06
2023-04-25T09:17:04.618Z,98751.16
2023-04-25T09:19:46.405Z,98744.13
2023-04-25T09:22:19.417Z,98738.00
2023-04-25T09:24:51.029Z,98738.13
2023-04-25T09:27:19.932Z,98752.09
2023-04-25T09:29:48.635Z,98757.72
2023-04-25T09:32:18.129Z,98774.94
2023-04-25T09:34:49.360Z,98776.13
2023-04-25T09:37:21.686Z,98778.63
2023-04-25T09:40:14.480Z,98774.69
2023-04-25T09:42:58.907Z,98777.03
2023-04-25T09:45:26.041Z,98772.38
2023-04-25T09:47:56.429Z,98780.16
2023-04-25T09:50:27.011Z,98777.19
2023-04-25T09:53:03.795Z,98782.47
2023-04-25T09:55:35.140Z,98784.75
2023-04-25T09:58:04.186Z,98780.44
2023-04-25T10:00:31.844Z,98771.19
2023-04-25T10:03:06.850Z,98775.91
2023-04-25T10:06:00.060Z,98777.03
2023-04-25T10:08:30.430Z,98770.53
2023-04-25T10:10:57.182Z,98779.81
2023-04-25T10:13:24.382Z,98777.94
2023-04-25T10:15:52.457Z,98783.00
2023-04-25T10:18:21.014Z,98781.81
2023-04-25T10:20:47.706Z,98777.03
2023-04-25T10:23:16.482Z,98776.94
2023-04-25T10:25:43.478Z,98772.34
2023-04-25T10:28:10.161Z,98778.63
2023-04-25T10:30:36.840Z,98788.66
2023-04-25T10:33:17.064Z,98794.16
2023-04-25T10:35:46.063Z,98802.94
2023-04-25T10:38:15.379Z,98800.06
2023-04-25T10:41:03.546Z,98796.03
2023-04-25T10:43:40.445Z,98805.53
2023-04-25T10:46:20.410Z,98801.69
2023-04-25T10:48:51.092Z,98801.28
2023-04-25T10:51:18.815Z,98800.72
2023-04-25T10:53:46.073Z,98793.03
2023-04-25T10:56:17.561Z,98801.09
2023-04-25T10:58:44.590Z,98804.75
2023-04-25T11:01:11.561Z,98804.13
2023-04-25T11:03:39.810Z,98798.22
2023-04-25T11:06:08.356Z,98805.84
2023-04-25T11:08:41.095Z,98806.16
2023-04-25T11:11:09.366Z,98793.44
2023-04-25T11:13:37.402Z,98792.75
2023-04-25T11:16:12.593Z,98792.91
2023-04-25T11:18:41.994Z,98795.59
2023-04-25T11:21:08.662Z,98788.13
2023-04-25T11:23:35.397Z,98783.81
2023-04-25T11:26:02.440Z,98785.69
2023-04-25T11:28:29.147Z,98792.59
2023-04-25T11:30:57.190Z,98787.25
2023-04-25T11:33:26.705Z,98784.63
2023-04-25T11:35:54.438Z,98794.91
2023-04-25T11:38:22.589Z,98795.78
2023-04-25T11:40:53.598Z,98798.81
2023-04-25T11:43:21.813Z,98803.38
2023-04-25T11:45:49.136Z,98812.72
2023-04-25T11:48:17.618Z,98809.75
2023-04-25T11:50:44.730Z,98830.00
2023-04-25T11:53:11.782Z,98821.50
2023-04-25T11:55:38.859Z,98822.19
2023-04-25T11:58:05.852Z,98823.78
2023-04-25T12:00:32.939Z,98814.56
2023-04-25T12:03:00.125Z,98815.41
2023-04-25T12:05:32.591Z,98823.44
2023-04-25T12:08:13.432Z,98823.66
2023-04-25T12:10:41.593Z,98818.84
2023-04-25T12:13:21.470Z,98816.00
2023-04-25T12:15:48.504Z,98824.63
2023-04-25T12:18:15.586Z,98833.81
2023-04-25T12:20:44.111Z,98828.88
2023-04-25T12:23:12.068Z,98834.50
2023-04-25T12:25:39.596Z,98840.09
2023-04-25T12:28:13.348Z,98843.03
2023-04-25T12:30:56.119Z,98839.47
2023-04-25T12:33:23.013Z,98839.09
2023-04-25T12:35:51.111Z,98836.84
2023-04-25T12:38:24.338Z,98838.06
2023-04-25T12:40:51.090Z,98839.13
2023-04-25T12:43:18.544Z,98832.47
2023-04-25T12:45:45.608Z,98838.16
2023-04-25T12:48:12.509Z,98831.31
2023-04-25T12:50:39.315Z,98845.50
2023-04-25T12:53:07.501Z,98851.31
2023-04-25T12:55:34.250Z,98869.59
2023-04-25T12:58:00.953Z,98874.50
2023-04-25T13:00:27.762Z,98867.59
2023-04-25T13:02:54.696Z,98871.19
2023-04-25T13:05:21.503Z,98849.72
2023-04-25T13:07:48.142Z,98851.03
2023-04-25T13:10:16.660Z,98861.72
2023-04-25T13:12:43.317Z,98858.00
2023-04-25T13:15:12.228Z,98861.56
2023-04-25T13:17:39.319Z,98863.16
2023-04-25T13:20:09.930Z,98866.38
2023-04-25T13:22:38.008Z,98866.06
2023-04-25T13:25:05.085Z,98892.09
2023-04-25T13:27:34.901Z,98897.97
2023-04-25T13:30:02.390Z,98899.31
2023-04-25T13:32:29.216Z,98912.00
2023-04-25T13:34:57.010Z,98908.34
2023-04-25T13:37:25.194Z,98913.81
2023-04-25T13:39:52.137Z,98911.38
2023-04-25T13:42:19.060Z,98910.63
2023-04-25T13:44:47.362Z,98909.16
2023-04-25T13:47:16.285Z,98903.00
2023-04-25T13:49:42.985Z,98908.78
2023-04-25T13:52:09.686Z,98905.16
2023-04-25T13:54:36.392Z,98899.72
2023-04-25T13:57:03.260Z,98906.03
2023-04-25T13:59:30.060Z,98908.31
2023-04-25T14:01:58.171Z,98910.63
2023-04-25T14:04:25.032Z,98903.66
2023-04-25T14:06:52.178Z,98904.31
2023-04-25T14:09:20.645Z,98911.94
2023-04-25T14:11:47.386Z,98913.41
2023-04-25T14:14:16.701Z,98906.63
2023-04-25T14:16:43.449Z,98913.81
2023-04-25T14:19:11.555Z,98908.81
2023-04-25T14:21:38.330Z,98911.47
2023-04-25T14:24:05.949Z,98918.81
2023-04-25T14:26:34.172Z,98918.00
2023-04-25T14:29:00.896Z,98917.47
2023-04-25T14:31:27.767Z,98919.09
2023-04-25T14:33:56.293Z,98921.22
2023-04-25T14:36:27.444Z,98918.81
2023-04-25T14:38:54.084Z,98923.03
2023-04-25T14:41:20.729Z,98927.81
2023-04-25T14:43:47.399Z,98926.84
2023-04-25T14:46:14.184Z,98925.31
2023-04-25T14:48:41.032Z,98933.59
2023-04-25T14:51:08.011Z,98936.97
2023-04-25T14:53:35.976Z,98941.91
2023-04-25T14:56:02.662Z,98941.28
2023-04-25T14:58:29.372Z,98940.81
2023-04-25T15:00:56.213Z,98932.16
2023-04-25T15:03:23.165Z,98936.66
2023-04-25T15:05:50.037Z,98941.94
2023-04-25T15:08:16.688Z,98945.13
2023-04-25T15:10:44.816Z,98938.41
2023-04-25T15:13:11.691Z,98939.28
2023-04-25T15:15:38.414Z,98939.25
2023-04-25T15:18:05.401Z,98939.59
2023-04-25T15:20:32.403Z,98947.72
2023-04-25T15:22:59.093Z,98942.13
2023-04-25T15:25:26.471Z,98943.13
2023-04-25T15:27:54.542Z,98955.00
2023-04-25T15:30:21.691Z,98949.81
2023-04-25T15:32:48.760Z,98955.41
2023-04-25T15:35:16.239Z,98952.28
2023-04-25T15:37:43.143Z,98963.50
2023-04-25T15:40:12.155Z,98964.16
2023-04-25T15:42:39.190Z,98963.03
2023-04-25T15:45:08.394Z,98963.75
2023-04-25T15:47:35.942Z,98965.47
2023-04-25T15:50:04.994Z,98973.00
2023-04-25T15:52:31.811Z,98978.88
2023-04-25T15:54:59.006Z,98985.13
2023-04-25T15:57:25.976Z,98989.66
2023-04-25T15:59:53.052Z,98992.44
2023-04-25T16:02:21.088Z,98990.44
2023-04-25T16:04:48.048Z,98985.97
2023-04-25T16:07:15.193Z,98985.41
2023-04-25T16:09:41.944Z,98987.66
2023-04-25T16:12:09.973Z,98987.34
2023-04-25T16:14:36.969Z,98982.38
2023-04-25T16:17:03.916Z,98983.56
2023-04-25T16:19:32.610Z,98989.53
2023-04-25T16:21:59.789Z,98988.88
2023-04-25T16:24:26.554Z,98998.44
2023-04-25T16:26:53.357Z,99000.56
2023-04-25T16:29:20.037Z,98998.34
2023-04-25T16:31:47.585Z,99001.22
2023-04-25T16:34:15.414Z,99010.41
2023-04-25T16:36:43.557Z,99007.53
2023-04-25T16:39:10.213Z,99017.22
2023-04-25T16:41:37.142Z,99012.41
2023-04-25T16:44:06.734Z,99012.97
2023-04-25T16:46:33.445Z,99020.63
2023-04-25T16:51:48.091Z,99025.69
2023-04-25T16:54:14.737Z,99030.81
2023-04-25T16:56:41.798Z,99029.31
2023-04-25T16:59:08.638Z,99036.22
2023-04-25T17:01:37.250Z,99037.03
2023-04-25T17:04:04.073Z,99031.91
2023-04-25T17:06:31.020Z,99032.06
2023-04-25T17:08:59.113Z,99034.72
2023-04-25T17:11:26.367Z,99032.88
2023-04-25T17:13:53.275Z,99047.31
2023-04-25T17:16:23.438Z,99036.22
2023-04-25T17:18:53.246Z,99045.63
2023-04-25T17:21:21.218Z,99048.28
2023-04-25T17:23:48.113Z,99044.41
2023-04-25T17:26:17.097Z,99056.75
2023-04-25T17:28:49.702Z,99048.56
2023-04-25T17:31:17.457Z,99054.09
2023-04-25T17:33:44.164Z,99048.56
2023-04-25T17:36:11.108Z,99052.31
2023-04-25T17:38:39.055Z,99056.31
2023-04-25T17:41:05.940Z,99054.91
2023-04-25T17:46:21.542Z,99060.75
2023-04-25T17:48:48.675Z,99055.75
2023-04-25T17:51:15.613Z,99057.66
2023-04-25T17:53:42.395Z,99054.50
2023-04-25T17:56:25.359Z,99059.78
2023-04-25T17:58:55.195Z,99056.19
2023-04-25T18:01:22.276Z,99057.59
2023-04-25T18:03:49.973Z,99056.88
2023-04-25T18:06:18.144Z,99062.84
2023-04-25T18:08:45.151Z,99063.66
2023-04-25T18:11:12.359Z,99057.84
2023-04-25T18:13:40.219Z,99061.19
2023-04-25T18:16:08.590Z,99072.13
2023-04-25T18:18:55.369Z,99067.56
2023-04-25T18:21:22.342Z,99071.03
2023-04-25T18:23:49.299Z,99072.00
2023-04-25T18:26:16.437Z,99077.00
2023-04-25T18:28:43.241Z,99080.63
2023-04-25T18:31:11.743Z,99090.16
2023-04-25T18:33:38.821Z,99083.94
2023-04-25T18:36:05.957Z,99089.47
2023-04-25T18:38:36.080Z,99100.00
2023-04-25T18:41:21.089Z,99090.69
2023-04-25T18:43:52.241Z,99098.59
2023-04-25T18:46:22.745Z,99107.75
2023-04-25T18:48:51.623Z,99108.78
2023-04-25T18:51:18.808Z,99113.13
2023-04-25T18:53:46.318Z,99117.44
2023-04-25T18:56:14.728Z,99118.06
2023-04-25T18:58:41.646Z,99120.47
2023-04-25T19:01:09.280Z,99112.72
2023-04-25T19:03:38.260Z,99121.06
2023-04-25T19:06:05.277Z,99119.13
2023-04-25T19:08:33.126Z,99120.47
2023-04-25T19:11:07.595Z,99126.03
2023-04-25T19:13:41.486Z,99125.59
2023-04-25T19:16:08.991Z,99128.16
2023-04-25T19:18:37.398Z,99136.53
2023-04-25T19:21:06.629Z,99141.69
2023-04-25T19:23:33.414Z,99142.09
2023-04-25T19:26:00.295Z,99140.47
2023-04-25T19:28:27.476Z,99140.09
2023-04-25T19:30:54.152Z,99141.50
2023-04-25T19:33:21.556Z,99146.56
2023-04-25T19:35:49.565Z,99148.03
2023-04-25T19:38:17.077Z,99147.41
2023-04-25T19:40:44.045Z,99146.69
2023-04-25T19:43:11.238Z,99142.22
2023-04-25T19:45:37.845Z,99139.97
2023-04-25T19:48:05.090Z,99144.25
2023-04-25T19:50:32.612Z,99149.56
2023-04-25T19:53:01.378Z,99150.22
2023-04-25T19:55:28.580Z,99154.13
2023-04-25T19:57:55.507Z,99161.69
2023-04-25T20:00:22.552Z,99159.00
2023-04-25T20:02:49.626Z,99163.81
2023-04-25T20:05:17.252Z,99161.28
2023-04-25T20:07:44.598Z,99169.72
2023-04-25T20:10:14.139Z,99172.66
2023-04-25T20:12:41.079Z,99176.59
2023-04-25T20:15:09.638Z,99177.81
2023-04-25T20:17:37.043Z,99174.78
2023-04-25T20:20:06.309Z,99175.75
2023-04-25T20:22:37.661Z,99176.47
2023-04-25T20:25:04.735Z,99174.09
2023-04-25T20:27:33.186Z,99177.41
2023-04-25T20:30:04.241Z,99175.06
2023-04-25T20:32:32.263Z,99175.44
2023-04-25T20:34:58.909Z,99178.88
2023-04-25T20:37:26.631Z,99180.53
2023-04-25T20:39:53.267Z,99181.13
2023-04-25T20:42:20.032Z,99185.72
2023-04-25T20:44:49.239Z,99173.81
2023-04-25T20:47:16.693Z,99174.28
2023-04-25T20:49:43.330Z,99183.22
2023-04-25T20:52:09.991Z,99182.94
2023-04-25T20:54:37.518Z,99175.13
2023-04-25T20:57:04.396Z,99179.91
2023-04-25T20:59:31.205Z,99177.41
2023-04-25T21:01:59.372Z,99172.44
2023-04-25T21:04:26.288Z,99175.06
2023-04-25T21:06:53.016Z,99173.38
2023-04-25T21:09:19.838Z,99172.78
2023-04-25T21:11:46.467Z,99179.28
2023-04-25T21:14:13.249Z,99169.47
2023-04-25T21:16:40.906Z,99176.59
2023-04-25T21:19:09.591Z,99178.25
2023-04-25T21:21:36.518Z,99172.69
2023-04-25T21:24:03.755Z,99172.09
2023-04-25T21:26:31.311Z,99175.31
2023-04-25T21:28:57.990Z,99164.53
2023-04-25T21:31:25.189Z,99168.72
2023-04-25T21:33:51.905Z,99167.06
2023-04-25T21:36:19.998Z,99171.25
2023-04-25T21:38:46.750Z,99172.06
2023-04-25T21:41:13.460Z,99172.31
2023-04-25T21:43:40.066Z,99175.16
2023-04-25T21:46:22.421Z,99180.69
2023-04-25T21:48:50.739Z,99180.31
2023-04-25T21:51:17.859Z,99188.16
2023-04-25T21:53:45.895Z,99183.88
2023-04-25T21:56:12.559Z,99185.03
2023-04-25T21:58:39.239Z,99185.47
2023-04-25T22:01:06.018Z,99182.94
2023-04-25T22:03:33.087Z,99183.50
2023-04-25T22:05:59.957Z,99189.53
2023-04-25T22:08:26.826Z,99185.66
2023-04-25T22:10:57.948Z,99186.81
2023-04-25T22:13:24.570Z,99183.13
2023-04-25T22:15:51.215Z,99186.63
2023-04-25T22:18:19.797Z,99177.72
2023-04-25T22:20:46.578Z,99182.72
2023-04-25T22:23:13.825Z,99181.16
2023-04-25T22:25:40.533Z,99180.94
2023-04-25T22:28:08.722Z,99187.19
2023-04-25T22:30:35.369Z,99189.25
2023-04-25T22:33:02.176Z,99189.06
2023-04-25T22:35:29.133Z,99190.25
2023-04-25T22:37:55.842Z,99192.44
2023-04-25T22:40:22.708Z,99188.66
2023-04-25T22:42:49.486Z,99194.50
2023-04-25T22:45:17.600Z,99194.50
2023-04-25T22:47:44.395Z,99208.63
2023-04-25T22:50:16.581Z,99203.72
2023-04-25T22:52:43.646Z,99206.22
2023-04-25T22:55:11.146Z,99200.38
2023-04-25T22:57:40.689Z,99203.06
2023-04-25T23:00:19.681Z,99213.34
2023-04-25T23:02:48.865Z,99216.66
2023-04-25T23:05:15.849Z,99219.69
2023-04-25T23:07:43.690Z,99216.59
2023-04-25T23:10:10.762Z,99226.44
2023-04-25T23:12:37.831Z,99227.28
2023-04-25T23:15:05.420Z,99225.91
2023-04-25T23:17:32.135Z,99228.66
2023-04-25T23:20:00.227Z,99217.31
2023-04-25T23:22:27.026Z,99215.75
2023-04-25T23:24:53.717Z,99215.50
2023-04-25T23:27:20.343Z,99213.50
2023-04-25T23:29:53.270Z,99214.47
2023-04-25T23:32:19.969Z,99221.00
2023-04-25T23:34:46.631Z,99219.38
2023-04-25T23:37:14.760Z,99222.97
2023-04-25T23:39:41.406Z,99217.75
2023-04-25T23:42:08.083Z,99228.41
2023-04-25T23:44:34.724Z,99224.06
2023-04-25T23:47:01.553Z,99224.41
2023-04-25T23:49:28.140Z,99223.56
2023-04-25T23:51:54.854Z,99227.94
2023-04-25T23:54:22.843Z,99219.66
2023-04-25T23:56:49.598Z,99225.44
2023-04-25T23:59:16.294Z,99231.22
